sensor_id;sensor_type;location;lat;lon;timestamp;pressure;altitude;pressure_sealevel;temperature;humidity
10806;BME280;5455;53.224;6.000;2024-03-29T00:00:56;98876.19;;;8.76;100.00
10806;BME280;5455;53.224;6.000;2024-03-29T00:03:22;98878.94;;;8.76;100.00
10806;BME280;5455;53.224;6.000;2024-03-29T00:05:48;98882.84;;;8.75;100.00
10806;BME280;5455;53.224;6.000;2024-03-29T00:08:14;98880.50;;;8.70;100.00
10806;BME280;5455;53.224;6.000;2024-03-29T00:10:40;98889.91;;;8.69;100.00
10806;BME280;5455;53.224;6.000;2024-03-29T00:13:06;98889.53;;;8.71;100.00
10806;BME280;5455;53.224;6.000;2024-03-29T00:15:32;98887.16;;;8.76;100.00
10806;BME280;5455;53.224;6.000;2024-03-29T00:17:58;98892.63;;;8.83;100.00
10806;BME280;5455;53.224;6.000;2024-03-29T00:20:24;98892.25;;;8.89;100.00
10806;BME280;5455;53.224;6.000;2024-03-29T00:22:50;98898.13;;;8.98;100.00
10806;BME280;5455;53.224;6.000;2024-03-29T00:25:16;98898.13;;;9.01;100.00
10806;BME280;5455;53.224;6.000;2024-03-29T00:27:42;98902.41;;;9.02;100.00
10806;BME280;5455;53.224;6.000;2024-03-29T00:30:14;98896.13;;;9.02;100.00
10806;BME280;5455;53.224;6.000;2024-03-29T00:32:40;98902.41;;;8.99;100.00
10806;BME280;5455;53.224;6.000;2024-03-29T00:35:07;98894.59;;;8.90;100.00
10806;BME280;5455;53.224;6.000;2024-03-29T00:37:33;98893.84;;;8.82;100.00
10806;BME280;5455;53.224;6.000;2024-03-29T00:40:00;98904.03;;;8.85;100.00
10806;BME280;5455;53.224;6.000;2024-03-29T00:42:26;98913.81;;;8.90;100.00
10806;BME280;5455;53.224;6.000;2024-03-29T00:44:52;98900.09;;;8.97;100.00
10806;BME280;5455;53.224;6.000;2024-03-29T00:47:18;98908.72;;;8.99;100.00
10806;BME280;5455;53.224;6.000;2024-03-29T00:49:44;98906.34;;;9.05;100.00
10806;BME280;5455;53.224;6.000;2024-03-29T00:52:10;98904.00;;;9.07;100.00
10806;BME280;5455;53.224;6.000;2024-03-29T00:54:36;98904.38;;;9.05;100.00
10806;BME280;5455;53.224;6.000;2024-03-29T00:57:02;98913.41;;;9.06;100.00
10806;BME280;5455;53.224;6.000;2024-03-29T00:59:28;98918.91;;;9.06;100.00
10806;BME280;5455;53.224;6.000;2024-03-29T01:01:54;98915.75;;;9.07;100.00
10806;BME280;5455;53.224;6.000;2024-03-29T01:04:20;98915.75;;;9.07;100.00
10806;BME280;5455;53.224;6.000;2024-03-29T01:06:46;98910.25;;;9.11;100.00
10806;BME280;5455;53.224;6.000;2024-03-29T01:09:12;98919.28;;;9.08;100.00
10806;BME280;5455;53.224;6.000;2024-03-29T01:11:38;98911.06;;;9.04;100.00
10806;BME280;5455;53.224;6.000;2024-03-29T01:14:05;98905.16;;;9.06;100.00
10806;BME280;5455;53.224;6.000;2024-03-29T01:16:32;98902.78;;;9.08;100.00
10806;BME280;5455;53.224;6.000;2024-03-29T01:18:58;98910.66;;;9.09;100.00
10806;BME280;5455;53.224;6.000;2024-03-29T01:21:26;98904.38;;;9.09;100.00
10806;BME280;5455;53.224;6.000;2024-03-29T01:23:52;98911.03;;;9.11;100.00
10806;BME280;5455;53.224;6.000;2024-03-29T01:26:19;98909.06;;;9.12;100.00
10806;BME280;5455;53.224;6.000;2024-03-29T01:28:48;98906.75;;;9.07;100.00
10806;BME280;5455;53.224;6.000;2024-03-29T01:31:14;98913.00;;;9.07;100.00
10806;BME280;5455;53.224;6.000;2024-03-29T01:33:39;98911.06;;;9.04;100.00
10806;BME280;5455;53.224;6.000;2024-03-29T01:36:07;98916.16;;;9.02;100.00
10806;BME280;5455;53.224;6.000;2024-03-29T01:38:33;98908.31;;;8.97;100.00
10806;BME280;5455;53.224;6.000;2024-03-29T01:41:00;98913.06;;;8.86;100.00
10806;BME280;5455;53.224;6.000;2024-03-29T01:43:26;98911.09;;;8.76;100.00
10806;BME280;5455;53.224;6.000;2024-03-29T01:45:55;98911.09;;;8.65;100.00
10806;BME280;5455;53.224;6.000;2024-03-29T01:48:25;98907.59;;;8.58;100.00
10806;BME280;5455;53.224;6.000;2024-03-29T01:50:57;98897.75;;;8.53;100.00
10806;BME280;5455;53.224;6.000;2024-03-29T01:53:24;98908.38;;;8.51;100.00
10806;BME280;5455;53.224;6.000;2024-03-29T01:55:51;98899.31;;;8.47;100.00
10806;BME280;5455;53.224;6.000;2024-03-29T01:58:18;98915.03;;;8.50;100.00
10806;BME280;5455;53.224;6.000;2024-03-29T02:00:57;98908.75;;;8.43;100.00
10806;BME280;5455;53.224;6.000;2024-03-29T02:03:24;98901.31;;;8.40;100.00
10806;BME280;5455;53.224;6.000;2024-03-29T02:05:50;98894.63;;;8.34;100.00
10806;BME280;5455;53.224;6.000;2024-03-29T02:08:16;98895.03;;;8.32;100.00
10806;BME280;5455;53.224;6.000;2024-03-29T02:10:47;98897.00;;;8.32;100.00
10806;BME280;5455;53.224;6.000;2024-03-29T02:13:13;98891.47;;;8.24;100.00
10806;BME280;5455;53.224;6.000;2024-03-29T02:15:40;98902.06;;;8.26;100.00
10806;BME280;5455;53.224;6.000;2024-03-29T02:18:07;98887.53;;;8.22;100.00
10806;BME280;5455;53.224;6.000;2024-03-29T02:20:34;98893.03;;;8.22;100.00
10806;BME280;5455;53.224;6.000;2024-03-29T02:23:06;98891.06;;;8.22;100.00
10806;BME280;5455;53.224;6.000;2024-03-29T02:25:34;98887.94;;;8.17;100.00
10806;BME280;5455;53.224;6.000;2024-03-29T02:28:02;98893.78;;;8.08;100.00
10806;BME280;5455;53.224;6.000;2024-03-29T02:30:29;98884.78;;;8.01;100.00
10806;BME280;5455;53.224;6.000;2024-03-29T02:32:59;98891.81;;;7.91;100.00
10806;BME280;5455;53.224;6.000;2024-03-29T02:35:25;98879.25;;;7.83;100.00
10806;BME280;5455;53.224;6.000;2024-03-29T02:37:52;98895.72;;;7.83;100.00
10806;BME280;5455;53.224;6.000;2024-03-29T02:40:18;98905.91;;;7.83;100.00
10806;BME280;5455;53.224;6.000;2024-03-29T02:42:45;98898.44;;;7.80;100.00
10806;BME280;5455;53.224;6.000;2024-03-29T02:45:11;98887.84;;;7.78;100.00
10806;BME280;5455;53.224;6.000;2024-03-29T02:47:37;98878.06;;;7.77;100.00
10806;BME280;5455;53.224;6.000;2024-03-29T02:50:05;98887.09;;;7.78;100.00
10806;BME280;5455;53.224;6.000;2024-03-29T02:52:31;98887.47;;;7.76;100.00
10806;BME280;5455;53.224;6.000;2024-03-29T02:54:57;98888.25;;;7.76;100.00
10806;BME280;5455;53.224;6.000;2024-03-29T02:57:22;98881.97;;;7.76;100.00
10806;BME280;5455;53.224;6.000;2024-03-29T02:59:48;98895.31;;;7.78;100.00
10806;BME280;5455;53.224;6.000;2024-03-29T03:02:14;98896.91;;;7.89;100.00
10806;BME280;5455;53.224;6.000;2024-03-29T03:04:40;98899.25;;;7.94;100.00
10806;BME280;5455;53.224;6.000;2024-03-29T03:07:06;98897.31;;;7.98;100.00
10806;BME280;5455;53.224;6.000;2024-03-29T03:09:52;98905.94;;;8.04;100.00
10806;BME280;5455;53.224;6.000;2024-03-29T03:12:37;98904.00;;;8.15;100.00
10806;BME280;5455;53.224;6.000;2024-03-29T03:15:04;98890.66;;;8.24;100.00
10806;BME280;5455;53.224;6.000;2024-03-29T03:17:31;98897.78;;;8.28;100.00
10806;BME280;5455;53.224;6.000;2024-03-29T03:19:59;98905.59;;;8.30;100.00
10806;BME280;5455;53.224;6.000;2024-03-29T03:22:25;98907.56;;;8.33;100.00
10806;BME280;5455;53.224;6.000;2024-03-29T03:24:51;98910.31;;;8.37;100.00
10806;BME280;5455;53.224;6.000;2024-03-29T03:27:17;98904.84;;;8.40;100.00
10806;BME280;5455;53.224;6.000;2024-03-29T03:29:43;98923.66;;;8.45;100.00
10806;BME280;5455;53.224;6.000;2024-03-29T03:32:09;98918.56;;;8.44;100.00
10806;BME280;5455;53.224;6.000;2024-03-29T03:34:35;98916.59;;;8.44;100.00
10806;BME280;5455;53.224;6.000;2024-03-29T03:37:03;98898.94;;;8.45;100.00
10806;BME280;5455;53.224;6.000;2024-03-29T03:39:29;98903.25;;;8.39;100.00
10806;BME280;5455;53.224;6.000;2024-03-29T03:41:55;98908.75;;;8.32;100.00
10806;BME280;5455;53.224;6.000;2024-03-29T03:44:21;98910.28;;;8.26;100.00
10806;BME280;5455;53.224;6.000;2024-03-29T03:46:49;98918.13;;;8.24;100.00
10806;BME280;5455;53.224;6.000;2024-03-29T03:49:15;98924.78;;;8.26;100.00
10806;BME280;5455;53.224;6.000;2024-03-29T03:51:41;98931.50;;;8.29;100.00
10806;BME280;5455;53.224;6.000;2024-03-29T03:54:07;98926.03;;;8.29;100.00
10806;BME280;5455;53.224;6.000;2024-03-29T03:56:33;98924.44;;;8.28;100.00
10806;BME280;5455;53.224;6.000;2024-03-29T03:58:59;98931.50;;;8.29;100.00
10806;BME280;5455;53.224;6.000;2024-03-29T04:01:25;98928.34;;;8.30;100.00
10806;BME280;5455;53.224;6.000;2024-03-29T04:03:51;98934.63;;;8.31;100.00
10806;BME280;5455;53.224;6.000;2024-03-29T04:06:17;98934.63;;;8.31;100.00
10806;BME280;5455;53.224;6.000;2024-03-29T04:08:46;98941.66;;;8.25;100.00
10806;BME280;5455;53.224;6.000;2024-03-29T04:11:13;98944.38;;;8.18;100.00
10806;BME280;5455;53.224;6.000;2024-03-29T04:13:39;98937.69;;;8.12;100.00
10806;BME280;5455;53.224;6.000;2024-03-29T04:16:06;98929.47;;;8.05;100.00
10806;BME280;5455;53.224;6.000;2024-03-29T04:18:34;98921.22;;;8.01;100.00
10806;BME280;5455;53.224;6.000;2024-03-29T04:21:01;98926.72;;;7.98;100.00
10806;BME280;5455;53.224;6.000;2024-03-29T04:23:28;98931.38;;;7.94;100.00
10806;BME280;5455;53.224;6.000;2024-03-29T04:25:58;98930.59;;;7.93;100.00
10806;BME280;5455;53.224;6.000;2024-03-29T04:28:25;98936.91;;;7.97;100.00
10806;BME280;5455;53.224;6.000;2024-03-29T04:30:56;98937.69;;;7.98;100.00
10806;BME280;5455;53.224;6.000;2024-03-29T04:33:23;98927.09;;;8.00;100.00
10806;BME280;5455;53.224;6.000;2024-03-29T04:36:02;98934.97;;;8.05;100.00
10806;BME280;5455;53.224;6.000;2024-03-29T04:38:29;98933.00;;;8.09;100.00
10806;BME280;5455;53.224;6.000;2024-03-29T04:40:56;98933.00;;;8.12;100.00
10806;BME280;5455;53.224;6.000;2024-03-29T04:43:27;98931.84;;;8.17;100.00
10806;BME280;5455;53.224;6.000;2024-03-29T04:46:10;98933.81;;;8.20;100.00
10806;BME280;5455;53.224;6.000;2024-03-29T04:48:40;98929.88;;;8.21;100.00
10806;BME280;5455;53.224;6.000;2024-03-29T04:51:08;98936.97;;;8.25;100.00
10806;BME280;5455;53.224;6.000;2024-03-29T04:53:38;98934.22;;;8.25;100.00
10806;BME280;5455;53.224;6.000;2024-03-29T04:56:05;98930.28;;;8.26;100.00
10806;BME280;5455;53.224;6.000;2024-03-29T04:58:31;98938.19;;;8.32;100.00
10806;BME280;5455;53.224;6.000;2024-03-29T05:00:57;98935.81;;;8.37;100.00
10806;BME280;5455;53.224;6.000;2024-03-29T05:03:24;98939.75;;;8.40;100.00
10806;BME280;5455;53.224;6.000;2024-03-29T05:05:50;98937.78;;;8.44;100.00
10806;BME280;5455;53.224;6.000;2024-03-29T05:08:17;98940.13;;;8.45;100.00
10806;BME280;5455;53.224;6.000;2024-03-29T05:10:49;98939.75;;;8.47;100.00
10806;BME280;5455;53.224;6.000;2024-03-29T05:13:19;98944.47;;;8.46;100.00
10806;BME280;5455;53.224;6.000;2024-03-29T05:15:49;98940.13;;;8.45;100.00
10806;BME280;5455;53.224;6.000;2024-03-29T05:18:15;98949.16;;;8.46;100.00
10806;BME280;5455;53.224;6.000;2024-03-29T05:20:40;98943.28;;;8.47;100.00
10806;BME280;5455;53.224;6.000;2024-03-29T05:23:15;98954.66;;;8.46;100.00
10806;BME280;5455;53.224;6.000;2024-03-29T05:25:42;98956.63;;;8.45;100.00
10806;BME280;5455;53.224;6.000;2024-03-29T05:28:09;98957.78;;;8.48;100.00
10806;BME280;5455;53.224;6.000;2024-03-29T05:30:35;98952.28;;;8.48;100.00
10806;BME280;5455;53.224;6.000;2024-03-29T05:33:03;98954.66;;;8.46;100.00
10806;BME280;5455;53.224;6.000;2024-03-29T05:35:30;98950.34;;;8.45;100.00
10806;BME280;5455;53.224;6.000;2024-03-29T05:37:56;98952.28;;;8.44;100.00
10806;BME280;5455;53.224;6.000;2024-03-29T05:40:24;98950.75;;;8.47;100.00
10806;BME280;5455;53.224;6.000;2024-03-29T05:42:53;98962.13;;;8.49;100.00
10806;BME280;5455;53.224;6.000;2024-03-29T05:45:26;98966.03;;;8.51;100.00
10806;BME280;5455;53.224;6.000;2024-03-29T05:47:54;98958.97;;;8.50;100.00
10806;BME280;5455;53.224;6.000;2024-03-29T05:50:21;98957.00;;;8.47;100.00
10806;BME280;5455;53.224;6.000;2024-03-29T05:52:47;98959.75;;;8.44;100.00
10806;BME280;5455;53.224;6.000;2024-03-29T05:55:14;98962.50;;;8.44;100.00
10806;BME280;5455;53.224;6.000;2024-03-29T05:57:40;98959.34;;;8.45;100.00
10806;BME280;5455;53.224;6.000;2024-03-29T06:00:12;98968.41;;;8.53;100.00
10806;BME280;5455;53.224;6.000;2024-03-29T06:02:39;98976.63;;;8.56;100.00
10806;BME280;5455;53.224;6.000;2024-03-29T06:05:06;98968.38;;;8.56;100.00
10806;BME280;5455;53.224;6.000;2024-03-29T06:07:32;98971.53;;;8.58;100.00
10806;BME280;5455;53.224;6.000;2024-03-29T06:10:00;98979.78;;;8.58;100.00
10806;BME280;5455;53.224;6.000;2024-03-29T06:12:29;98975.84;;;8.59;100.00
10806;BME280;5455;53.224;6.000;2024-03-29T06:14:55;98989.19;;;8.61;100.00
10806;BME280;5455;53.224;6.000;2024-03-29T06:17:40;98992.75;;;8.65;100.00
10806;BME280;5455;53.224;6.000;2024-03-29T06:20:06;98988.81;;;8.69;100.00
10806;BME280;5455;53.224;6.000;2024-03-29T06:22:32;98994.31;;;8.73;100.00
10806;BME280;5455;53.224;6.000;2024-03-29T06:24:59;98997.06;;;8.80;100.00
10806;BME280;5455;53.224;6.000;2024-03-29T06:27:33;99006.09;;;8.88;100.00
10806;BME280;5455;53.224;6.000;2024-03-29T06:30:00;98993.16;;;8.95;100.00
10806;BME280;5455;53.224;6.000;2024-03-29T06:32:27;99002.94;;;9.03;100.00
10806;BME280;5455;53.224;6.000;2024-03-29T06:34:53;99021.78;;;9.12;100.00
10806;BME280;5455;53.224;6.000;2024-03-29T06:37:19;99016.28;;;9.19;100.00
10806;BME280;5455;53.224;6.000;2024-03-29T06:39:48;99013.53;;;9.15;100.00
10806;BME280;5455;53.224;6.000;2024-03-29T06:42:14;99016.28;;;9.19;100.00
10806;BME280;5455;53.224;6.000;2024-03-29T06:44:40;99014.72;;;9.18;100.00
10806;BME280;5455;53.224;6.000;2024-03-29T06:47:07;99028.47;;;9.18;100.00
10806;BME280;5455;53.224;6.000;2024-03-29T06:49:34;99027.66;;;9.21;100.00
10806;BME280;5455;53.224;6.000;2024-03-29T06:52:00;99024.91;;;9.24;100.00
10806;BME280;5455;53.224;6.000;2024-03-29T06:54:30;99026.09;;;9.30;100.00
10806;BME280;5455;53.224;6.000;2024-03-29T06:56:58;99035.09;;;9.38;100.00
10806;BME280;5455;53.224;6.000;2024-03-29T06:59:24;99034.31;;;9.41;100.00
10806;BME280;5455;53.224;6.000;2024-03-29T07:01:50;99041.00;;;9.43;100.00
10806;BME280;5455;53.224;6.000;2024-03-29T07:04:23;99039.81;;;9.45;100.00
10806;BME280;5455;53.224;6.000;2024-03-29T07:06:50;99043.34;;;9.45;100.00
10806;BME280;5455;53.224;6.000;2024-03-29T07:09:18;99052.41;;;9.49;100.00
10806;BME280;5455;53.224;6.000;2024-03-29T07:11:49;99052.38;;;9.53;100.00
10806;BME280;5455;53.224;6.000;2024-03-29T07:14:15;99053.56;;;9.55;100.00
10806;BME280;5455;53.224;6.000;2024-03-29T07:16:42;99057.06;;;9.56;100.00
10806;BME280;5455;53.224;6.000;2024-03-29T07:19:09;99067.28;;;9.62;100.00
10806;BME280;5455;53.224;6.000;2024-03-29T07:21:35;99075.91;;;9.71;100.00
10806;BME280;5455;53.224;6.000;2024-03-29T07:24:01;99067.28;;;9.73;100.00
10806;BME280;5455;53.224;6.000;2024-03-29T07:26:27;99073.94;;;9.79;100.00
10806;BME280;5455;53.224;6.000;2024-03-29T07:28:53;99064.50;;;9.83;100.00
10806;BME280;5455;53.224;6.000;2024-03-29T07:31:19;99063.31;;;9.84;100.00
10806;BME280;5455;53.224;6.000;2024-03-29T07:33:45;99059.34;;;9.89;100.00
10806;BME280;5455;53.224;6.000;2024-03-29T07:36:11;99083.34;;;9.92;100.00
10806;BME280;5455;53.224;6.000;2024-03-29T07:38:38;99068.78;;;9.98;100.00
10806;BME280;5455;53.224;6.000;2024-03-29T07:41:04;99069.53;;;10.06;100.00
10806;BME280;5455;53.224;6.000;2024-03-29T07:43:51;99076.63;;;10.14;100.00
10806;BME280;5455;53.224;6.000;2024-03-29T07:46:19;99077.41;;;10.08;100.00
10806;BME280;5455;53.224;6.000;2024-03-29T07:48:45;99073.06;;;10.07;100.00
10806;BME280;5455;53.224;6.000;2024-03-29T07:51:11;99080.56;;;10.03;100.00
10806;BME280;5455;53.224;6.000;2024-03-29T07:53:37;99080.94;;;10.05;100.00
10806;BME280;5455;53.224;6.000;2024-03-29T07:56:03;99096.28;;;10.16;100.00
10806;BME280;5455;53.224;6.000;2024-03-29T07:58:29;99097.03;;;10.24;100.00
10806;BME280;5455;53.224;6.000;2024-03-29T08:00:55;99098.16;;;10.37;100.00
10806;BME280;5455;53.224;6.000;2024-03-29T08:03:22;99095.75;;;10.42;100.00
10806;BME280;5455;53.224;6.000;2024-03-29T08:06:14;99111.88;;;10.51;100.00
10806;BME280;5455;53.224;6.000;2024-03-29T08:08:43;99104.31;;;10.66;100.00
10806;BME280;5455;53.224;6.000;2024-03-29T08:11:09;99116.88;;;10.70;100.00
10806;BME280;5455;53.224;6.000;2024-03-29T08:13:36;99127.00;;;10.91;100.00
10806;BME280;5455;53.224;6.000;2024-03-29T08:16:02;99117.44;;;11.06;100.00
10806;BME280;5455;53.224;6.000;2024-03-29T08:18:28;99119.38;;;11.13;100.00
10806;BME280;5455;53.224;6.000;2024-03-29T08:20:55;99120.66;;;11.01;100.00
10806;BME280;5455;53.224;6.000;2024-03-29T08:23:21;99123.50;;;10.90;100.00
10806;BME280;5455;53.224;6.000;2024-03-29T08:25:48;99116.78;;;10.88;100.00
10806;BME280;5455;53.224;6.000;2024-03-29T08:28:15;99129.84;;;10.80;100.00
10806;BME280;5455;53.224;6.000;2024-03-29T08:30:41;99118.84;;;10.73;100.00
10806;BME280;5455;53.224;6.000;2024-03-29T08:33:07;99121.66;;;10.63;100.00
10806;BME280;5455;53.224;6.000;2024-03-29T08:35:34;99118.91;;;10.59;100.00
10806;BME280;5455;53.224;6.000;2024-03-29T08:38:00;99109.47;;;10.60;100.00
10806;BME280;5455;53.224;6.000;2024-03-29T08:40:28;99125.97;;;10.67;100.00
10806;BME280;5455;53.224;6.000;2024-03-29T08:42:55;99129.53;;;10.61;100.00
10806;BME280;5455;53.224;6.000;2024-03-29T08:45:21;99138.22;;;10.56;100.00
10806;BME280;5455;53.224;6.000;2024-03-29T08:47:48;99133.06;;;10.61;100.00
10806;BME280;5455;53.224;6.000;2024-03-29T08:50:13;99135.44;;;10.66;100.00
10806;BME280;5455;53.224;6.000;2024-03-29T08:52:40;99139.00;;;10.63;100.00
10806;BME280;5455;53.224;6.000;2024-03-29T08:55:06;99139.81;;;10.57;100.00
10806;BME280;5455;53.224;6.000;2024-03-29T08:57:32;99144.91;;;10.55;100.00
10806;BME280;5455;53.224;6.000;2024-03-29T08:59:59;99137.41;;;10.62;100.00
10806;BME280;5455;53.224;6.000;2024-03-29T09:02:25;99131.44;;;10.78;100.00
10806;BME280;5455;53.224;6.000;2024-03-29T09:04:51;99121.91;;;10.89;100.00
10806;BME280;5455;53.224;6.000;2024-03-29T09:07:18;99128.56;;;10.95;100.00
10806;BME280;5455;53.224;6.000;2024-03-29T09:09:44;99134.03;;;11.02;100.00
10806;BME280;5455;53.224;6.000;2024-03-29T09:12:10;99141.53;;;11.02;100.00
10806;BME280;5455;53.224;6.000;2024-03-29T09:14:36;99147.78;;;11.06;100.00
10806;BME280;5455;53.224;6.000;2024-03-29T09:17:02;99148.94;;;11.08;100.00
10806;BME280;5455;53.224;6.000;2024-03-29T09:19:29;99151.31;;;11.14;100.00
10806;BME280;5455;53.224;6.000;2024-03-29T09:21:58;99155.84;;;11.41;100.00
10806;BME280;5455;53.224;6.000;2024-03-29T09:24:24;99156.56;;;11.49;100.00
10806;BME280;5455;53.224;6.000;2024-03-29T09:26:51;99149.94;;;11.36;100.00
10806;BME280;5455;53.224;6.000;2024-03-29T09:29:18;99150.31;;;11.41;100.00
10806;BME280;5455;53.224;6.000;2024-03-29T09:31:46;99153.94;;;11.31;100.00
10806;BME280;5455;53.224;6.000;2024-03-29T09:34:13;99159.09;;;11.29;100.00
10806;BME280;5455;53.224;6.000;2024-03-29T09:36:39;99170.94;;;11.23;100.00
10806;BME280;5455;53.224;6.000;2024-03-29T09:39:05;99171.34;;;11.21;100.00
10806;BME280;5455;53.224;6.000;2024-03-29T09:41:31;99161.78;;;11.36;100.00
10806;BME280;5455;53.224;6.000;2024-03-29T09:44:03;99158.47;;;11.55;100.00
10806;BME280;5455;53.224;6.000;2024-03-29T09:46:33;99172.09;;;11.80;100.00
10806;BME280;5455;53.224;6.000;2024-03-29T09:49:00;99170.78;;;11.95;100.00
10806;BME280;5455;53.224;6.000;2024-03-29T09:51:29;99173.59;;;11.88;100.00
10806;BME280;5455;53.224;6.000;2024-03-29T09:53:57;99179.63;;;12.17;100.00
10806;BME280;5455;53.224;6.000;2024-03-29T09:56:25;99185.31;;;12.40;100.00
10806;BME280;5455;53.224;6.000;2024-03-29T09:58:52;99197.03;;;12.51;100.00
10806;BME280;5455;53.224;6.000;2024-03-29T10:01:18;99189.28;;;12.39;100.00
10806;BME280;5455;53.224;6.000;2024-03-29T10:03:48;99184.94;;;12.72;100.00
10806;BME280;5455;53.224;6.000;2024-03-29T10:06:15;99175.41;;;12.77;100.00
10806;BME280;5455;53.224;6.000;2024-03-29T10:08:43;99174.16;;;12.81;100.00
10806;BME280;5455;53.224;6.000;2024-03-29T10:11:10;99183.34;;;13.01;100.00
10806;BME280;5455;53.224;6.000;2024-03-29T10:13:36;99187.56;;;13.13;100.00
10806;BME280;5455;53.224;6.000;2024-03-29T10:16:03;99205.28;;;12.89;100.00
10806;BME280;5455;53.224;6.000;2024-03-29T10:18:29;99208.41;;;12.57;100.00
10806;BME280;5455;53.224;6.000;2024-03-29T10:21:06;99204.88;;;12.56;100.00
10806;BME280;5455;53.224;6.000;2024-03-29T10:23:35;99211.16;;;12.60;100.00
10806;BME280;5455;53.224;6.000;2024-03-29T10:26:02;99205.25;;;12.58;100.00
10806;BME280;5455;53.224;6.000;2024-03-29T10:28:33;99196.56;;;12.23;100.00
10806;BME280;5455;53.224;6.000;2024-03-29T10:31:01;99185.13;;;12.21;100.00
10806;BME280;5455;53.224;6.000;2024-03-29T10:33:34;99182.16;;;12.38;100.00
10806;BME280;5455;53.224;6.000;2024-03-29T10:36:01;99183.25;;;12.48;100.00
10806;BME280;5455;53.224;6.000;2024-03-29T10:38:30;99183.91;;;12.59;100.00
10806;BME280;5455;53.224;6.000;2024-03-29T10:40:57;99188.25;;;12.60;100.00
10806;BME280;5455;53.224;6.000;2024-03-29T10:43:24;99187.63;;;12.79;100.00
10806;BME280;5455;53.224;6.000;2024-03-29T10:45:50;99184.31;;;12.91;100.00
10806;BME280;5455;53.224;6.000;2024-03-29T10:48:26;99184.69;;;12.90;100.00
10806;BME280;5455;53.224;6.000;2024-03-29T10:50:56;99180.06;;;13.13;100.00
10806;BME280;5455;53.224;6.000;2024-03-29T10:53:24;99185.28;;;13.35;100.00
10806;BME280;5455;53.224;6.000;2024-03-29T10:55:57;99192.63;;;13.48;100.00
10806;BME280;5455;53.224;6.000;2024-03-29T10:58:35;99197.72;;;13.50;100.00
10806;BME280;5455;53.224;6.000;2024-03-29T11:01:03;99202.81;;;13.78;100.00
10806;BME280;5455;53.224;6.000;2024-03-29T11:03:32;99211.13;;;13.78;100.00
10806;BME280;5455;53.224;6.000;2024-03-29T11:06:03;99203.22;;;13.76;100.00
10806;BME280;5455;53.224;6.000;2024-03-29T11:08:34;99211.84;;;14.05;100.00
10806;BME280;5455;53.224;6.000;2024-03-29T11:11:04;99212.94;;;14.11;100.00
10806;BME280;5455;53.224;6.000;2024-03-29T11:16:09;99203.28;;;13.73;100.00
10806;BME280;5455;53.224;6.000;2024-03-29T11:18:36;99205.34;;;13.69;100.00
10806;BME280;5455;53.224;6.000;2024-03-29T11:21:04;99200.44;;;13.76;100.00
10806;BME280;5455;53.224;6.000;2024-03-29T11:23:34;99214.38;;;14.19;100.00
10806;BME280;5455;53.224;6.000;2024-03-29T11:26:00;99212.97;;;14.31;100.00
10806;BME280;5455;53.224;6.000;2024-03-29T11:28:31;99222.34;;;14.17;100.00
10806;BME280;5455;53.224;6.000;2024-03-29T11:31:01;99217.94;;;13.97;98.67
10806;BME280;5455;53.224;6.000;2024-03-29T11:36:21;99229.66;;;14.27;95.63
10806;BME280;5455;53.224;6.000;2024-03-29T11:38:56;99247.03;;;14.08;95.84
10806;BME280;5455;53.224;6.000;2024-03-29T11:41:26;99254.91;;;13.87;97.10
10806;BME280;5455;53.224;6.000;2024-03-29T11:43:54;99245.03;;;13.86;94.98
10806;BME280;5455;53.224;6.000;2024-03-29T11:46:20;99239.19;;;13.80;95.00
10806;BME280;5455;53.224;6.000;2024-03-29T11:48:47;99231.72;;;13.77;95.95
10806;BME280;5455;53.224;6.000;2024-03-29T11:51:19;99238.44;;;13.76;97.98
10806;BME280;5455;53.224;6.000;2024-03-29T11:53:50;99248.06;;;13.68;97.37
10806;BME280;5455;53.224;6.000;2024-03-29T11:56:18;99235.03;;;13.92;97.25
10806;BME280;5455;53.224;6.000;2024-03-29T11:58:44;99241.59;;;13.78;95.95
10806;BME280;5455;53.224;6.000;2024-03-29T12:01:10;99243.38;;;13.38;97.63
10806;BME280;5455;53.224;6.000;2024-03-29T12:03:40;99245.09;;;13.29;100.00
10806;BME280;5455;53.224;6.000;2024-03-29T12:06:07;99239.44;;;13.09;100.00
10806;BME280;5455;53.224;6.000;2024-03-29T12:08:36;99242.59;;;12.74;100.00
10806;BME280;5455;53.224;6.000;2024-03-29T12:11:03;99248.31;;;12.56;100.00
10806;BME280;5455;53.224;6.000;2024-03-29T12:13:30;99246.53;;;12.39;100.00
10806;BME280;5455;53.224;6.000;2024-03-29T12:15:57;99252.25;;;12.58;100.00
10806;BME280;5455;53.224;6.000;2024-03-29T12:18:25;99257.41;;;12.90;100.00
10806;BME280;5455;53.224;6.000;2024-03-29T12:20:52;99261.38;;;13.23;100.00
10806;BME280;5455;53.224;6.000;2024-03-29T12:23:21;99263.63;;;13.58;100.00
10806;BME280;5455;53.224;6.000;2024-03-29T12:25:48;99276.28;;;13.59;100.00
10806;BME280;5455;53.224;6.000;2024-03-29T12:28:15;99273.53;;;13.29;100.00
10806;BME280;5455;53.224;6.000;2024-03-29T12:30:43;99281.72;;;13.09;100.00
10806;BME280;5455;53.224;6.000;2024-03-29T12:33:15;99291.59;;;13.41;100.00
10806;BME280;5455;53.224;6.000;2024-03-29T12:35:53;99295.31;;;13.57;100.00
10806;BME280;5455;53.224;6.000;2024-03-29T12:38:21;99278.44;;;13.75;100.00
10806;BME280;5455;53.224;6.000;2024-03-29T12:40:50;99280.25;;;13.85;100.00
10806;BME280;5455;53.224;6.000;2024-03-29T12:43:23;99282.81;;;13.99;100.00
10806;BME280;5455;53.224;6.000;2024-03-29T12:45:50;99277.31;;;13.72;100.00
10806;BME280;5455;53.224;6.000;2024-03-29T12:48:18;99284.03;;;13.71;100.00
10806;BME280;5455;53.224;6.000;2024-03-29T12:50:49;99286.03;;;13.94;100.00
10806;BME280;5455;53.224;6.000;2024-03-29T12:53:16;99299.00;;;14.01;99.36
10806;BME280;5455;53.224;6.000;2024-03-29T12:55:47;99282.97;;;13.89;100.00
10806;BME280;5455;53.224;6.000;2024-03-29T12:58:15;99288.22;;;14.06;100.00
10806;BME280;5455;53.224;6.000;2024-03-29T13:00:42;99292.28;;;14.02;100.00
10806;BME280;5455;53.224;6.000;2024-03-29T13:03:08;99286.78;;;13.98;100.00
10806;BME280;5455;53.224;6.000;2024-03-29T13:05:35;99284.13;;;13.91;100.00
10806;BME280;5455;53.224;6.000;2024-03-29T13:08:07;99279.31;;;13.95;100.00
10806;BME280;5455;53.224;6.000;2024-03-29T13:10:35;99291.75;;;14.10;100.00
10806;BME280;5455;53.224;6.000;2024-03-29T13:13:01;99289.94;;;14.23;100.00
10806;BME280;5455;53.224;6.000;2024-03-29T13:15:27;99293.38;;;14.31;100.00